createdAt,value
2019-01-25T00:01:38.925Z,88.50
2019-01-25T00:04:08.790Z,88.50
2019-01-25T00:06:38.599Z,88.40
2019-01-25T00:09:09.676Z,88.40
2019-01-25T00:11:39.545Z,88.50
2019-01-25T00:14:09.484Z,88.30
2019-01-25T00:16:39.431Z,88.90
2019-01-25T00:19:09.382Z,88.50
2019-01-25T00:21:39.268Z,89.10
2019-01-25T00:24:09.129Z,88.30
2019-01-25T00:26:38.932Z,88.40
2019-01-25T00:29:08.718Z,89.10
2019-01-25T00:31:38.592Z,88.70
2019-01-25T00:34:08.372Z,88.70
2019-01-25T00:36:38.168Z,89.20
2019-01-25T00:39:08.495Z,89.40
2019-01-25T00:41:38.287Z,89.30
2019-01-25T00:44:08.462Z,89.20
2019-01-25T00:46:38.574Z,90.00
2019-01-25T00:49:08.451Z,89.50
2019-01-25T00:51:38.316Z,89.30
2019-01-25T00:54:08.168Z,89.40
2019-01-25T00:56:37.974Z,89.30
2019-01-25T00:59:07.837Z,88.80
2019-01-25T01:01:37.699Z,89.60
2019-01-25T01:04:07.632Z,89.40
2019-01-25T01:06:37.420Z,89.40
2019-01-25T01:09:08.952Z,89.50
2019-01-25T01:11:38.812Z,88.70
2019-01-25T01:14:08.609Z,89.50
2019-01-25T01:16:38.817Z,88.50
2019-01-25T01:19:08.679Z,88.20
2019-01-25T01:21:38.480Z,89.10
2019-01-25T01:24:08.274Z,89.00
2019-01-25T01:26:38.064Z,88.50
2019-01-25T01:29:07.854Z,89.50
2019-01-25T01:31:37.649Z,89.50
2019-01-25T01:34:07.529Z,89.70
2019-01-25T01:39:07.500Z,88.90
2019-01-25T01:41:37.291Z,90.20
2019-01-25T01:46:36.372Z,89.10
2019-01-25T01:49:06.300Z,89.50
2019-01-25T01:51:36.100Z,90.00
2019-01-25T01:54:06.056Z,89.80
2019-01-25T01:56:35.848Z,89.70
2019-01-25T01:59:05.721Z,89.70
2019-01-25T02:01:35.582Z,90.20
2019-01-25T02:04:05.372Z,89.50
2019-01-25T02:06:35.165Z,90.00
2019-01-25T02:09:07.419Z,89.70
2019-01-25T02:11:37.365Z,89.80
2019-01-25T02:14:07.225Z,89.80
2019-01-25T02:16:37.016Z,89.40
2019-01-25T02:19:06.893Z,90.00
2019-01-25T02:21:36.688Z,90.10
2019-01-25T02:24:06.849Z,89.60
2019-01-25T02:26:36.868Z,90.00
2019-01-25T02:29:06.641Z,90.00
2019-01-25T02:31:36.436Z,90.00
2019-01-25T02:34:06.224Z,90.00
2019-01-25T02:36:36.269Z,90.00
2019-01-25T02:39:08.430Z,90.30
2019-01-25T02:41:38.471Z,89.90
2019-01-25T02:44:08.408Z,89.70
2019-01-25T02:46:38.457Z,90.00
2019-01-25T02:49:08.250Z,89.90
2019-01-25T02:51:38.033Z,90.00
2019-01-25T02:54:07.965Z,90.00
2019-01-25T02:56:38.016Z,90.00
2019-01-25T02:59:07.804Z,90.00
2019-01-25T03:01:37.612Z,90.00
2019-01-25T03:04:07.557Z,90.30
2019-01-25T03:06:37.383Z,90.10
2019-01-25T03:09:10.176Z,90.10
2019-01-25T03:11:40.070Z,90.20
2019-01-25T03:14:09.927Z,90.30
2019-01-25T03:16:39.805Z,90.30
2019-01-25T03:19:09.682Z,90.30
2019-01-25T03:21:39.544Z,90.30
2019-01-25T03:24:09.461Z,90.30
2019-01-25T03:26:39.333Z,90.30
2019-01-25T03:29:09.191Z,90.30
2019-01-25T03:31:38.985Z,90.40
2019-01-25T03:34:08.773Z,90.50
2019-01-25T03:36:38.580Z,90.50
2019-01-25T03:39:09.578Z,90.60
2019-01-25T03:41:39.370Z,90.60
2019-01-25T03:44:09.239Z,90.60
2019-01-25T03:46:39.366Z,90.60
2019-01-25T03:49:09.304Z,90.50
2019-01-25T03:51:39.097Z,90.50
2019-01-25T03:54:08.957Z,90.50
2019-01-25T03:56:38.751Z,90.80
2019-01-25T03:59:08.697Z,90.70
2019-01-25T04:01:38.560Z,91.00
2019-01-25T04:04:08.498Z,90.80
2019-01-25T04:06:38.282Z,90.70
2019-01-25T04:09:09.737Z,91.00
2019-01-25T04:11:39.761Z,90.80
2019-01-25T04:14:09.702Z,91.10
2019-01-25T04:16:39.478Z,91.00
2019-01-25T04:19:09.282Z,91.00
2019-01-25T04:21:39.131Z,91.30
2019-01-25T04:24:09.027Z,91.30
2019-01-25T04:26:38.876Z,91.40
2019-01-25T04:29:08.676Z,91.00
2019-01-25T04:31:38.545Z,91.30
2019-01-25T04:34:08.360Z,91.30
2019-01-25T04:36:38.149Z,91.30
2019-01-25T04:39:09.215Z,91.10
2019-01-25T04:41:39.073Z,91.40
2019-01-25T04:44:08.949Z,91.30
2019-01-25T04:46:38.739Z,91.40
2019-01-25T04:49:08.602Z,91.20
2019-01-25T04:51:38.468Z,91.70
2019-01-25T04:54:08.413Z,91.70
2019-01-25T04:56:39.086Z,91.60
2019-01-25T04:59:09.015Z,91.30
2019-01-25T05:06:37.336Z,91.40
2019-01-25T05:09:08.817Z,91.40
2019-01-25T05:11:38.861Z,91.30
2019-01-25T05:14:08.743Z,91.30
2019-01-25T05:16:38.535Z,91.40
2019-01-25T05:19:08.421Z,91.40
2019-01-25T05:21:38.362Z,91.40
2019-01-25T05:24:11.433Z,91.40
2019-01-25T05:26:41.221Z,91.70
2019-01-25T05:29:11.063Z,91.40
2019-01-25T05:31:40.839Z,91.70
2019-01-25T05:34:10.693Z,91.70
2019-01-25T05:36:40.505Z,91.40
2019-01-25T05:39:10.568Z,91.50
2019-01-25T05:41:40.359Z,91.60
2019-01-25T05:44:10.365Z,91.60
2019-01-25T05:46:40.168Z,91.60
2019-01-25T05:49:10.038Z,91.40
2019-01-25T05:51:39.840Z,91.70
2019-01-25T05:56:42.936Z,91.50
2019-01-25T05:59:12.816Z,91.50
2019-01-25T06:01:45.763Z,91.50
2019-01-25T06:04:16.219Z,91.60
2019-01-25T06:06:46.339Z,91.50
2019-01-25T06:11:49.617Z,91.50
2019-01-25T06:14:19.452Z,92.00
2019-01-25T06:16:49.243Z,92.10
2019-01-25T06:19:19.038Z,91.70
2019-01-25T06:21:49.770Z,91.70
2019-01-25T06:24:19.649Z,91.90
2019-01-25T06:26:49.550Z,92.00
2019-01-25T06:29:19.362Z,91.70
2019-01-25T06:31:49.170Z,91.70
2019-01-25T06:34:18.987Z,92.00
2019-01-25T06:36:48.776Z,91.90
2019-01-25T06:39:18.616Z,92.00
2019-01-25T06:41:48.471Z,91.80
2019-01-25T06:44:18.272Z,91.80
2019-01-25T06:46:48.055Z,92.00
2019-01-25T06:49:17.964Z,91.70
2019-01-25T06:51:47.824Z,91.70
2019-01-25T06:54:17.628Z,92.10
2019-01-25T06:56:47.416Z,92.10
2019-01-25T06:59:20.644Z,91.90
2019-01-25T07:02:09.193Z,92.20
2019-01-25T07:04:38.997Z,92.00
2019-01-25T07:07:17.901Z,92.10
2019-01-25T07:09:47.835Z,91.90
2019-01-25T07:12:17.623Z,92.20
2019-01-25T07:14:47.417Z,91.90
2019-01-25T07:17:18.928Z,92.00
2019-01-25T07:19:48.731Z,92.10
2019-01-25T07:22:18.603Z,92.30
2019-01-25T07:24:48.400Z,92.00
2019-01-25T07:27:18.229Z,92.10
2019-01-25T07:29:48.048Z,92.00
2019-01-25T07:32:18.108Z,92.20
2019-01-25T07:34:47.942Z,92.00
2019-01-25T07:37:17.769Z,92.30
2019-01-25T07:39:47.712Z,92.30
2019-01-25T07:42:17.538Z,92.30
2019-01-25T07:44:47.395Z,92.30
2019-01-25T07:47:17.181Z,92.30
2019-01-25T07:49:46.973Z,92.60
2019-01-25T07:52:16.761Z,92.50
2019-01-25T07:54:46.841Z,92.50
2019-01-25T07:57:16.693Z,92.50
2019-01-25T07:59:46.497Z,92.60
2019-01-25T08:02:16.349Z,92.60
2019-01-25T08:04:46.141Z,92.50
2019-01-25T08:07:16.072Z,92.50
2019-01-25T08:09:45.952Z,92.60
2019-01-25T08:12:15.745Z,92.10
2019-01-25T08:14:45.635Z,92.30
2019-01-25T08:17:15.416Z,92.40
2019-01-25T08:19:45.236Z,92.10
2019-01-25T08:22:15.024Z,92.50
2019-01-25T08:24:45.005Z,92.30
2019-01-25T08:27:15.075Z,92.60
2019-01-25T08:29:44.964Z,92.60
2019-01-25T08:32:14.775Z,92.60
2019-01-25T08:34:44.914Z,92.80
2019-01-25T08:37:15.204Z,92.80
2019-01-25T08:39:45.075Z,92.30
2019-01-25T08:42:15.694Z,92.60
2019-01-25T08:44:46.121Z,92.60
2019-01-25T08:47:15.912Z,92.40
2019-01-25T08:49:45.815Z,92.40
2019-01-25T08:52:15.656Z,92.60
2019-01-25T08:54:45.468Z,92.40
2019-01-25T08:57:15.341Z,92.20
2019-01-25T08:59:45.782Z,92.20
2019-01-25T09:02:15.824Z,91.80
2019-01-25T09:04:46.054Z,92.00
2019-01-25T09:07:15.923Z,91.90
2019-01-25T09:09:45.852Z,92.00
2019-01-25T09:12:23.088Z,92.30
2019-01-25T09:14:47.618Z,91.80
2019-01-25T09:17:17.457Z,91.40
2019-01-25T09:19:47.307Z,91.50
2019-01-25T09:22:17.095Z,91.70
2019-01-25T09:24:47.058Z,91.30
2019-01-25T09:27:17.056Z,91.30
2019-01-25T09:29:47.069Z,91.70
2019-01-25T09:32:17.401Z,91.60
2019-01-25T09:34:47.466Z,91.50
2019-01-25T09:37:17.402Z,91.80
2019-01-25T09:39:47.437Z,91.20
2019-01-25T09:42:17.440Z,91.30
2019-01-25T09:44:47.235Z,91.60
2019-01-25T09:47:17.137Z,90.90
2019-01-25T09:49:47.260Z,90.80
2019-01-25T09:52:17.308Z,90.80
2019-01-25T09:54:47.522Z,90.60
2019-01-25T09:57:17.416Z,90.70
2019-01-25T09:59:47.384Z,90.90
2019-01-25T10:02:17.439Z,90.80
2019-01-25T10:04:47.362Z,90.90
2019-01-25T10:07:17.186Z,90.00
2019-01-25T10:09:47.084Z,90.00
2019-01-25T10:12:16.995Z,89.40
2019-01-25T10:14:46.773Z,89.10
2019-01-25T10:17:16.861Z,88.50
2019-01-25T10:19:46.668Z,88.60
2019-01-25T10:22:16.601Z,89.20
2019-01-25T10:24:46.448Z,89.40
2019-01-25T10:27:25.212Z,89.30
2019-01-25T10:29:55.039Z,89.10
2019-01-25T10:32:27.390Z,89.10
2019-01-25T10:34:57.359Z,88.90
2019-01-25T10:37:27.185Z,88.50
2019-01-25T10:39:57.097Z,87.50
2019-01-25T10:42:27.145Z,88.30
2019-01-25T10:44:57.090Z,88.70
2019-01-25T10:47:27.186Z,88.50
2019-01-25T10:49:57.220Z,88.00
2019-01-25T10:52:27.131Z,88.50
2019-01-25T10:54:57.021Z,87.40
2019-01-25T10:57:26.980Z,87.40
2019-01-25T10:59:57.773Z,87.30
2019-01-25T11:02:27.686Z,86.70
2019-01-25T11:04:57.510Z,86.90
2019-01-25T11:07:27.664Z,86.70
2019-01-25T11:09:57.587Z,86.10
2019-01-25T11:12:27.736Z,85.30
2019-01-25T11:14:57.537Z,85.20
2019-01-25T11:17:27.590Z,85.40
2019-01-25T11:19:57.392Z,85.40
2019-01-25T11:22:27.179Z,85.30
2019-01-25T11:24:57.220Z,85.50
2019-01-25T11:29:56.232Z,85.40
2019-01-25T11:32:26.024Z,85.70
2019-01-25T11:37:25.048Z,86.10
2019-01-25T11:39:54.848Z,85.70
2019-01-25T11:42:24.756Z,86.00
2019-01-25T11:44:54.899Z,85.90
2019-01-25T11:47:24.785Z,85.90
2019-01-25T11:49:54.587Z,85.80
2019-01-25T11:54:55.032Z,84.90
2019-01-25T11:57:24.837Z,84.60
2019-01-25T11:59:54.872Z,84.90
2019-01-25T12:02:24.693Z,85.10
2019-01-25T12:04:54.469Z,84.80
2019-01-25T12:07:24.260Z,84.80
2019-01-25T12:09:54.777Z,84.80
2019-01-25T12:12:24.568Z,85.30
2019-01-25T12:14:54.361Z,84.90
2019-01-25T12:17:24.164Z,84.80
2019-01-25T12:19:53.969Z,84.70
2019-01-25T12:22:24.048Z,83.80
2019-01-25T12:24:54.352Z,84.40
2019-01-25T12:27:24.140Z,84.20
2019-01-25T12:39:51.097Z,81.70
2019-01-25T12:42:21.153Z,80.50
2019-01-25T12:44:51.087Z,80.00
2019-01-25T12:47:20.885Z,79.50
2019-01-25T12:49:50.676Z,80.00
2019-01-25T12:52:20.545Z,79.30
2019-01-25T12:54:50.381Z,78.00
2019-01-25T12:57:20.178Z,76.90
2019-01-25T12:59:50.031Z,76.10
2019-01-25T13:02:19.825Z,77.40
2019-01-25T13:07:18.931Z,76.30
2019-01-25T13:17:16.737Z,75.60
2019-01-25T13:22:15.914Z,75.60
2019-01-25T13:27:14.960Z,75.90
2019-01-25T13:29:44.856Z,76.40
2019-01-25T13:39:43.087Z,75.10
2019-01-25T13:42:12.948Z,75.50
2019-01-25T13:44:42.740Z,75.70
2019-01-25T13:49:41.948Z,74.40
2019-01-25T13:52:11.831Z,74.90
2019-01-25T13:54:41.730Z,74.50
2019-01-25T13:57:11.516Z,74.60
2019-01-25T13:59:41.300Z,74.50
2019-01-25T14:04:40.643Z,74.20
2019-01-25T14:07:10.585Z,74.50
2019-01-25T14:09:40.393Z,74.60
2019-01-25T14:14:39.638Z,74.40
2019-01-25T14:17:09.577Z,74.10
2019-01-25T14:19:39.620Z,74.10
2019-01-25T14:22:09.409Z,74.50
2019-01-25T14:24:39.216Z,75.00
2019-01-25T14:27:09.246Z,74.90
2019-01-25T14:32:08.384Z,74.60
2019-01-25T14:34:38.189Z,75.10
2019-01-25T14:39:37.510Z,75.90
2019-01-25T14:42:07.296Z,75.80
2019-01-25T14:44:37.164Z,76.30
2019-01-25T14:47:07.197Z,76.50
2019-01-25T14:49:36.984Z,77.00
2019-01-25T14:52:06.873Z,77.30
2019-01-25T14:54:36.653Z,77.30
2019-01-25T14:57:06.429Z,77.50
2019-01-25T14:59:36.552Z,77.90
2019-01-25T15:07:05.402Z,78.50
2019-01-25T15:09:35.184Z,78.70
2019-01-25T15:19:33.492Z,79.00
2019-01-25T15:22:03.348Z,79.50
2019-01-25T15:24:33.197Z,79.70
2019-01-25T15:29:32.334Z,79.80
2019-01-25T15:32:02.143Z,79.80
2019-01-25T15:37:01.192Z,80.20
2019-01-25T15:39:31.080Z,80.40
2019-01-25T15:42:00.860Z,80.60
2019-01-25T15:44:30.657Z,80.90
2019-01-25T15:47:00.438Z,80.80
2019-01-25T15:49:30.226Z,81.00
2019-01-25T15:52:00.068Z,81.00
2019-01-25T15:54:29.852Z,81.10
2019-01-25T15:59:28.964Z,81.50
2019-01-25T16:01:58.904Z,81.70
2019-01-25T16:04:34.748Z,81.80
2019-01-25T16:07:00.248Z,82.00
2019-01-25T16:11:59.365Z,81.50
2019-01-25T16:14:29.152Z,81.40
2019-01-25T16:16:59.016Z,81.20
2019-01-25T16:19:28.812Z,81.50
2019-01-25T16:21:58.747Z,81.20
2019-01-25T16:24:28.641Z,81.40
2019-01-25T16:26:58.444Z,82.10
2019-01-25T16:29:28.237Z,81.60
2019-01-25T16:31:58.273Z,81.60
2019-01-25T16:34:28.136Z,81.90
2019-01-25T16:39:27.134Z,81.80
2019-01-25T16:41:56.917Z,82.00
2019-01-25T16:46:56.120Z,81.70
2019-01-25T16:49:25.984Z,82.00
2019-01-25T16:51:55.931Z,82.00
2019-01-25T16:54:25.792Z,82.10
2019-01-25T16:56:55.694Z,82.20
2019-01-25T17:01:57.344Z,82.60
2019-01-25T17:04:27.181Z,82.80
2019-01-25T17:06:57.056Z,83.00
2019-01-25T17:09:27.100Z,83.10
2019-01-25T17:11:56.976Z,83.30
2019-01-25T17:14:33.303Z,83.40
2019-01-25T17:16:58.317Z,83.80
2019-01-25T17:19:28.365Z,84.40
2019-01-25T17:21:58.160Z,84.40
2019-01-25T17:24:27.967Z,84.60
2019-01-25T17:26:57.753Z,86.60
2019-01-25T17:29:27.652Z,85.50
2019-01-25T17:31:57.454Z,86.00
2019-01-25T17:34:27.256Z,86.30
2019-01-25T17:36:58.864Z,87.30
2019-01-25T17:44:27.981Z,90.70
2019-01-25T17:49:27.008Z,91.70
2019-01-25T17:51:56.892Z,92.30
2019-01-25T17:54:26.775Z,92.60
2019-01-25T17:56:56.559Z,92.80
2019-01-25T17:59:26.328Z,93.00
2019-01-25T18:01:56.107Z,93.00
2019-01-25T18:04:25.933Z,93.20
2019-01-25T18:06:55.718Z,93.40
2019-01-25T18:09:25.500Z,93.50
2019-01-25T18:11:55.300Z,93.40
2019-01-25T18:14:25.209Z,93.40
2019-01-25T18:19:24.513Z,93.30
2019-01-25T18:21:55.184Z,93.40
2019-01-25T18:24:25.032Z,93.20
2019-01-25T18:26:54.813Z,93.00
2019-01-25T18:29:49.396Z,92.80
2019-01-25T18:32:19.252Z,92.70
2019-01-25T18:34:49.177Z,93.00
2019-01-25T18:37:18.970Z,92.80
2019-01-25T18:39:48.863Z,92.50
2019-01-25T18:42:19.533Z,92.70
2019-01-25T18:44:56.521Z,92.70
2019-01-25T18:49:50.188Z,92.90
2019-01-25T18:52:19.988Z,92.80
2019-01-25T18:54:49.761Z,92.80
2019-01-25T18:57:19.576Z,93.10
2019-01-25T18:59:49.344Z,93.20
2019-01-25T19:02:19.180Z,93.30
2019-01-25T19:04:48.966Z,93.50
2019-01-25T19:07:18.901Z,93.20
2019-01-25T19:09:48.680Z,93.40
2019-01-25T19:12:18.545Z,93.40
2019-01-25T19:14:48.324Z,93.50
2019-01-25T19:17:18.438Z,93.20
2019-01-25T19:19:48.237Z,93.20
2019-01-25T19:22:18.100Z,93.50
2019-01-25T19:24:47.881Z,93.30
2019-01-25T19:27:17.941Z,93.00
2019-01-25T19:29:50.254Z,92.80
2019-01-25T19:32:20.053Z,92.80
2019-01-25T19:34:49.832Z,93.00
2019-01-25T19:37:19.628Z,92.90
2019-01-25T19:39:49.401Z,92.90
2019-01-25T19:42:19.272Z,93.00
2019-01-25T19:44:49.124Z,93.10
2019-01-25T19:47:18.920Z,93.40
2019-01-25T19:49:48.705Z,93.70
2019-01-25T19:52:18.572Z,93.80
2019-01-25T19:54:48.460Z,94.00
2019-01-25T19:57:18.253Z,94.30
2019-01-25T19:59:48.058Z,94.20
2019-01-25T20:02:17.840Z,94.50
2019-01-25T20:04:47.680Z,94.20
2019-01-25T20:07:17.622Z,94.20
2019-01-25T20:09:47.472Z,94.20
2019-01-25T20:12:17.380Z,94.40
2019-01-25T20:14:47.236Z,94.70
2019-01-25T20:17:17.132Z,94.80
2019-01-25T20:19:46.961Z,94.90
2019-01-25T20:22:16.825Z,95.10
2019-01-25T20:24:46.676Z,95.10
2019-01-25T20:27:16.596Z,95.10
2019-01-25T20:29:46.384Z,95.40
2019-01-25T20:32:16.174Z,95.60
2019-01-25T20:34:46.025Z,95.70
2019-01-25T20:39:45.047Z,95.80
2019-01-25T20:42:14.902Z,95.70
2019-01-25T20:44:44.752Z,95.90
2019-01-25T20:47:14.523Z,96.20
2019-01-25T20:49:44.368Z,96.20
2019-01-25T20:52:14.163Z,96.30
2019-01-25T20:54:43.945Z,96.40
2019-01-25T20:57:13.736Z,96.30
2019-01-25T20:59:43.597Z,96.40
2019-01-25T21:02:14.281Z,96.50
2019-01-25T21:04:44.064Z,96.70
2019-01-25T21:07:13.939Z,96.70
2019-01-25T21:09:43.717Z,96.70
2019-01-25T21:12:13.568Z,96.70
2019-01-25T21:14:43.349Z,96.80
2019-01-25T21:17:13.144Z,96.90
2019-01-25T21:19:42.952Z,96.90
2019-01-25T21:22:13.087Z,97.00
2019-01-25T21:24:42.888Z,97.30
2019-01-25T21:27:12.818Z,97.20
2019-01-25T21:29:42.601Z,97.10
2019-01-25T21:32:12.393Z,97.20
2019-01-25T21:34:42.173Z,97.10
2019-01-25T21:37:11.984Z,97.10
2019-01-25T21:39:41.929Z,97.10
2019-01-25T21:42:11.905Z,97.10
2019-01-25T21:44:41.685Z,96.90
2019-01-25T21:47:11.485Z,97.20
2019-01-25T21:49:41.325Z,97.10
2019-01-25T21:52:11.268Z,97.50
2019-01-25T21:54:41.372Z,97.10
2019-01-25T21:57:11.244Z,97.10
2019-01-25T22:02:10.416Z,97.20
2019-01-25T22:04:40.269Z,97.50
2019-01-25T22:07:10.221Z,97.20
2019-01-25T22:09:40.084Z,97.20
2019-01-25T22:14:39.133Z,97.50
2019-01-25T22:17:08.929Z,97.60
2019-01-25T22:19:38.703Z,97.60
2019-01-25T22:22:08.664Z,97.90
2019-01-25T22:24:38.488Z,97.80
2019-01-25T22:27:08.395Z,97.80
2019-01-25T22:29:38.194Z,97.70
2019-01-25T22:32:08.073Z,97.70
2019-01-25T22:34:37.870Z,98.00
2019-01-25T22:37:07.647Z,97.80
2019-01-25T22:39:37.441Z,97.80
2019-01-25T22:42:07.285Z,97.80
2019-01-25T22:44:37.123Z,97.90
2019-01-25T22:47:07.019Z,97.90
2019-01-25T22:49:36.943Z,97.90
2019-01-25T22:52:06.855Z,97.90
2019-01-25T22:54:36.653Z,98.10
2019-01-25T22:57:06.680Z,98.30
2019-01-25T23:02:28.392Z,97.90
2019-01-25T23:07:46.789Z,97.90
2019-01-25T23:10:18.933Z,97.90
2019-01-25T23:12:48.787Z,98.00
2019-01-25T23:15:19.021Z,98.30
2019-01-25T23:17:48.960Z,98.00
2019-01-25T23:20:18.909Z,98.00
2019-01-25T23:25:18.121Z,98.20
2019-01-25T23:27:47.940Z,98.50
2019-01-25T23:30:18.324Z,98.20
2019-01-25T23:32:48.100Z,98.60
2019-01-25T23:35:17.952Z,98.60
2019-01-25T23:37:47.811Z,98.40
2019-01-25T23:40:17.660Z,98.40
2019-01-25T23:42:47.560Z,98.50
2019-01-25T23:45:17.347Z,98.80
2019-01-25T23:47:47.252Z,98.60
2019-01-25T23:50:17.309Z,98.80
2019-01-25T23:52:47.082Z,99.10
2019-01-25T23:55:17.014Z,99.00
2019-01-25T23:57:46.802Z,98.70
